Wetterdaten: Woche 01.06.20 - 07.06.20 (KW23)
Datum Zeit Temp. Aussen Temp. o. S. Temp +5cm Feuchte Auss Luftdruck Regen Sonnenschein Regendauer Solar Windben Empfang
01.06.2020 00:00 14,5 C 12,8 C 12,5 C 70 % 1022,6 hPa 0,0 l/m 0,00 h 0,00 h 0 W/m 0,3 km/h (0 Bft) 99,55 %
01.06.2020 01:00 13,9 C 12,1 C 11,6 C 72 % 1022,6 hPa 0,0 l/m 0,00 h 0,00 h 0 W/m 0,0 km/h (0 Bft) 97,57 %
01.06.2020 02:00 13,0 C 10,9 C 10,5 C 74 % 1022,6 hPa 0,0 l/m 0,00 h 0,00 h 0 W/m 0,0 km/h (0 Bft) 97,94 %
01.06.2020 03:00 12,0 C 10,3 C 9,9 C 77 % 1022,5 hPa 0,0 l/m 0,00 h 0,00 h 0 W/m 0,0 km/h (0 Bft) 95,94 %
01.06.2020 04:00 11,5 C 10,0 C 9,4 C 81 % 1022,5 hPa 0,0 l/m 0,00 h 0,00 h 0 W/m 0,0 km/h (0 Bft) 98,86 %
01.06.2020 05:00 11,2 C 10,3 C 9,6 C 84 % 1022,4 hPa 0,0 l/m 0,00 h 0,00 h 9 W/m 0,0 km/h (0 Bft) 94,85 %
01.06.2020 06:00 11,4 C 11,3 C 10,4 C 87 % 1022,6 hPa 0,0 l/m 0,00 h 0,00 h 21 W/m 0,6 km/h (0 Bft) 99,71 %
01.06.2020 07:00 12,3 C 13,0 C 11,6 C 87 % 1022,7 hPa 0,0 l/m 0,00 h 0,00 h 38 W/m 2,6 km/h (1 Bft) 95,45 %
01.06.2020 08:00 15,8 C 22,3 C 18,2 C 80 % 1022,9 hPa 0,0 l/m 0,00 h 0,00 h 72 W/m 3,2 km/h (1 Bft) 98,01 %
01.06.2020 09:00 20,8 C 25,8 C 28,8 C 65 % 1022,9 hPa 0,0 l/m 1,00 h 0,00 h 563 W/m 4,1 km/h (1 Bft) 99,50 %
01.06.2020 10:00 23,7 C 28,7 C 31,6 C 56 % 1022,7 hPa 0,0 l/m 1,00 h 0,00 h 742 W/m 5,6 km/h (1 Bft) 95,79 %
01.06.2020 11:00 25,6 C 30,4 C 26,6 C 50 % 1022,4 hPa 0,0 l/m 1,00 h 0,00 h 867 W/m 8,5 km/h (2 Bft) 98,29 %
01.06.2020 12:00 26,8 C 31,9 C 26,1 C 47 % 1022,0 hPa 0,0 l/m 1,00 h 0,00 h 951 W/m 8,2 km/h (2 Bft) 96,83 %
01.06.2020 13:00 27,8 C 32,6 C 29,9 C 44 % 1021,7 hPa 0,0 l/m 1,00 h 0,00 h 986 W/m 8,9 km/h (2 Bft) 97,58 %
01.06.2020 14:00 28,4 C 33,1 C 27,4 C 42 % 1021,2 hPa 0,0 l/m 1,00 h 0,00 h 970 W/m 7,0 km/h (2 Bft) 98,29 %
01.06.2020 15:00 28,9 C 32,8 C 26,0 C 41 % 1020,8 hPa 0,0 l/m 1,00 h 0,00 h 895 W/m 5,8 km/h (2 Bft) 96,42 %
01.06.2020 16:00 29,4 C 32,5 C 25,9 C 40 % 1020,4 hPa 0,0 l/m 1,00 h 0,00 h 780 W/m 5,2 km/h (1 Bft) 99,57 %
01.06.2020 17:00 29,4 C 31,4 C 25,5 C 39 % 1019,9 hPa 0,0 l/m 1,00 h 0,00 h 619 W/m 3,7 km/h (1 Bft) 95,23 %
01.06.2020 18:00 28,7 C 28,6 C 24,1 C 40 % 1019,5 hPa 0,0 l/m 1,00 h 0,00 h 412 W/m 3,8 km/h (1 Bft) 97,83 %
01.06.2020 19:00 26,5 C 23,7 C 21,0 C 47 % 1019,4 hPa 0,0 l/m 0,07 h 0,00 h 118 W/m 0,9 km/h (0 Bft) 99,72 %
01.06.2020 20:00 23,8 C 21,4 C 18,7 C 50 % 1019,3 hPa 0,0 l/m 0,00 h 0,00 h 54 W/m 0,4 km/h (0 Bft) 96,30 %
01.06.2020 21:00 22,1 C 19,6 C 17,6 C 52 % 1019,4 hPa 0,0 l/m 0,00 h 0,00 h 16 W/m 0,2 km/h (0 Bft) 96,58 %
01.06.2020 22:00 20,4 C 18,0 C 16,4 C 55 % 1019,6 hPa 0,0 l/m 0,00 h 0,00 h 0 W/m 0,0 km/h (0 Bft) 97,89 %
01.06.2020 23:00 19,0 C 17,1 C 16,1 C 62 % 1019,7 hPa 0,0 l/m 0,00 h 0,00 h 0 W/m 0,5 km/h (0 Bft) 96,23 %
02.06.2020 00:00 18,1 C 16,1 C 15,5 C 66 % 1019,8 hPa 0,0 l/m 0,00 h 0,00 h 0 W/m 0,6 km/h (0 Bft) 98,14 %
02.06.2020 01:00 16,9 C 14,4 C 13,9 C 69 % 1019,7 hPa 0,0 l/m 0,00 h 0,00 h 0 W/m 0,0 km/h (0 Bft) 96,23 %
02.06.2020 02:00 15,5 C 12,9 C 12,4 C 73 % 1019,5 hPa 0,0 l/m 0,00 h 0,00 h 0 W/m 0,0 km/h (0 Bft) 97,22 %
02.06.2020 03:00 14,2 C 11,9 C 11,4 C 78 % 1019,4 hPa 0,0 l/m 0,00 h 0,00 h 0 W/m 0,0 km/h (0 Bft) 98,29 %
02.06.2020 04:00 13,2 C 11,3 C 10,8 C 80 % 1019,2 hPa 0,0 l/m 0,00 h 0,00 h 0 W/m 0,0 km/h (0 Bft) 99,22 %
02.06.2020 05:00 12,5 C 10,8 C 10,6 C 84 % 1019,0 hPa 0,0 l/m 0,00 h 0,00 h 10 W/m 0,0 km/h (0 Bft) 93,95 %
02.06.2020 06:00 12,2 C 11,8 C 10,7 C 87 % 1019,1 hPa 0,0 l/m 0,00 h 0,00 h 23 W/m 0,0 km/h (0 Bft) 98,60 %
02.06.2020 07:00 13,1 C 14,6 C 12,2 C 90 % 1019,0 hPa 0,0 l/m 0,00 h 0,00 h 40 W/m 0,0 km/h (0 Bft) 98,00 %
02.06.2020 08:00 17,2 C 24,8 C 23,0 C 81 % 1019,0 hPa 0,0 l/m 0,00 h 0,00 h 72 W/m 3,1 km/h (1 Bft) 96,99 %
02.06.2020 09:00 23,1 C 27,8 C 30,7 C 57 % 1018,8 hPa 0,0 l/m 0,97 h 0,00 h 544 W/m 8,4 km/h (2 Bft) 98,89 %
02.06.2020 10:00 25,4 C 29,0 C 29,5 C 50 % 1018,3 hPa 0,0 l/m 1,00 h 0,00 h 659 W/m 9,6 km/h (2 Bft) 98,09 %
02.06.2020 11:00 26,7 C 31,4 C 27,5 C 47 % 1017,8 hPa 0,0 l/m 1,00 h 0,00 h 860 W/m 8,7 km/h (2 Bft) 96,20 %
02.06.2020 12:00 28,1 C 33,2 C 27,9 C 44 % 1017,2 hPa 0,0 l/m 1,00 h 0,00 h 935 W/m 8,8 km/h (2 Bft) 97,93 %
02.06.2020 13:00 29,1 C 34,0 C 30,1 C 40 % 1016,5 hPa 0,0 l/m 1,00 h 0,00 h 970 W/m 8,8 km/h (2 Bft) 97,65 %
02.06.2020 14:00 29,8 C 34,3 C 29,0 C 38 % 1015,8 hPa 0,0 l/m 1,00 h 0,00 h 916 W/m 8,2 km/h (2 Bft) 97,94 %
02.06.2020 15:00 30,1 C 33,6 C 27,9 C 37 % 1015,0 hPa 0,0 l/m 1,00 h 0,00 h 795 W/m 7,4 km/h (2 Bft) 95,35 %
02.06.2020 16:00 30,1 C 32,5 C 27,4 C 38 % 1014,3 hPa 0,0 l/m 1,00 h 0,00 h 584 W/m 4,1 km/h (1 Bft) 96,21 %
02.06.2020 17:00 30,2 C 31,7 C 26,9 C 37 % 1013,5 hPa 0,0 l/m 0,93 h 0,00 h 473 W/m 3,2 km/h (1 Bft) 98,73 %
02.06.2020 18:00 30,4 C 30,9 C 26,0 C 38 % 1012,7 hPa 0,0 l/m 1,00 h 0,00 h 369 W/m 1,2 km/h (1 Bft) 98,27 %
02.06.2020 19:00 29,1 C 27,5 C 24,1 C 41 % 1012,1 hPa 0,0 l/m 0,50 h 0,00 h 165 W/m 0,4 km/h (0 Bft) 96,30 %
02.06.2020 20:00 26,8 C 24,2 C 21,7 C 45 % 1011,6 hPa 0,0 l/m 0,00 h 0,00 h 46 W/m 0,0 km/h (0 Bft) 97,35 %
02.06.2020 21:00 24,0 C 21,1 C 20,0 C 54 % 1011,5 hPa 0,0 l/m 0,00 h 0,00 h 13 W/m 3,1 km/h (1 Bft) 97,72 %
02.06.2020 22:00 22,0 C 19,9 C 19,6 C 60 % 1011,7 hPa 0,0 l/m 0,00 h 0,00 h 0 W/m 2,2 km/h (1 Bft) 98,15 %
02.06.2020 23:00 20,6 C 18,4 C 18,2 C 64 % 1011,3 hPa 0,0 l/m 0,00 h 0,00 h 0 W/m 0,5 km/h (0 Bft) 96,30 %
03.06.2020 00:00 19,2 C 17,0 C 16,7 C 66 % 1010,9 hPa 0,0 l/m 0,00 h 0,00 h 0 W/m 0,2 km/h (0 Bft) 96,79 %
03.06.2020 01:00 18,1 C 16,3 C 16,1 C 69 % 1010,3 hPa 0,0 l/m 0,00 h 0,00 h 0 W/m 0,2 km/h (0 Bft) 97,51 %
03.06.2020 02:00 17,4 C 16,3 C 16,2 C 69 % 1009,8 hPa 0,0 l/m 0,00 h 0,00 h 0 W/m 1,1 km/h (0 Bft) 99,36 %
03.06.2020 03:00 17,0 C 15,4 C 15,4 C 69 % 1009,3 hPa 0,0 l/m 0,00 h 0,00 h 0 W/m 0,2 km/h (0 Bft) 94,03 %
03.06.2020 04:00 16,1 C 14,1 C 13,7 C 71 % 1008,6 hPa 0,0 l/m 0,00 h 0,00 h 0 W/m 0,0 km/h (0 Bft) 98,77 %
03.06.2020 05:00 15,2 C 13,9 C 13,5 C 76 % 1008,2 hPa 0,0 l/m 0,00 h 0,00 h 8 W/m 0,0 km/h (0 Bft) 99,00 %
03.06.2020 06:00 14,8 C 14,0 C 13,8 C 80 % 1007,9 hPa 0,0 l/m 0,00 h 0,00 h 25 W/m 0,7 km/h (0 Bft) 96,28 %
03.06.2020 07:00 15,0 C 15,1 C 14,4 C 83 % 1007,7 hPa 0,0 l/m 0,00 h 0,00 h 57 W/m 1,8 km/h (1 Bft) 97,93 %
03.06.2020 08:00 17,1 C 21,1 C 20,1 C 78 % 1007,4 hPa 0,0 l/m 0,00 h 0,00 h 132 W/m 6,9 km/h (2 Bft) 96,25 %
03.06.2020 09:00 20,3 C 23,8 C 26,3 C 66 % 1007,0 hPa 0,0 l/m 0,83 h 0,00 h 446 W/m 5,6 km/h (1 Bft) 97,55 %
03.06.2020 10:00 21,9 C 24,8 C 24,8 C 60 % 1006,7 hPa 0,0 l/m 0,73 h 0,00 h 495 W/m 7,1 km/h (2 Bft) 98,15 %
03.06.2020 11:00 23,5 C 27,0 C 24,8 C 54 % 1006,3 hPa 0,0 l/m 1,00 h 0,00 h 625 W/m 8,1 km/h (2 Bft) 97,51 %
03.06.2020 12:00 25,0 C 30,1 C 25,5 C 52 % 1005,7 hPa 0,0 l/m 1,00 h 0,00 h 882 W/m 10,5 km/h (2 Bft) 98,27 %
03.06.2020 13:00 26,5 C 30,4 C 27,0 C 50 % 1005,1 hPa 0,0 l/m 1,00 h 0,00 h 895 W/m 12,0 km/h (2 Bft) 97,09 %
03.06.2020 14:00 26,9 C 31,5 C 26,5 C 49 % 1004,2 hPa 0,0 l/m 1,00 h 0,00 h 928 W/m 10,5 km/h (2 Bft) 97,25 %
03.06.2020 15:00 27,5 C 30,4 C 25,8 C 46 % 1003,4 hPa 0,0 l/m 0,87 h 0,00 h 718 W/m 12,1 km/h (2 Bft) 98,01 %
03.06.2020 16:00 27,1 C 29,0 C 25,3 C 45 % 1002,6 hPa 0,0 l/m 0,80 h 0,00 h 568 W/m 10,1 km/h (2 Bft) 98,36 %
03.06.2020 17:00 26,3 C 26,9 C 24,1 C 45 % 1002,1 hPa 0,0 l/m 0,50 h 0,00 h 356 W/m 6,8 km/h (2 Bft) 97,22 %
03.06.2020 18:00 25,6 C 25,9 C 23,2 C 44 % 1001,5 hPa 0,0 l/m 0,87 h 0,00 h 314 W/m 6,1 km/h (2 Bft) 97,55 %
03.06.2020 19:00 24,8 C 24,0 C 22,1 C 44 % 1001,3 hPa 0,0 l/m 0,73 h 0,00 h 172 W/m 4,1 km/h (1 Bft) 97,09 %
03.06.2020 20:00 23,2 C 21,1 C 20,5 C 50 % 1001,1 hPa 0,0 l/m 0,00 h 0,00 h 44 W/m 2,7 km/h (1 Bft) 98,29 %
03.06.2020 21:00 20,9 C 18,6 C 18,7 C 60 % 1001,1 hPa 0,0 l/m 0,00 h 0,00 h 11 W/m 4,0 km/h (1 Bft) 96,98 %
03.06.2020 22:00 19,1 C 16,9 C 17,4 C 64 % 1001,2 hPa 0,0 l/m 0,00 h 0,00 h 0 W/m 3,1 km/h (1 Bft) 97,35 %
03.06.2020 23:00 17,9 C 15,7 C 15,9 C 69 % 1000,8 hPa 0,0 l/m 0,00 h 0,00 h 0 W/m 0,2 km/h (0 Bft) 99,66 %
04.06.2020 00:00 16,8 C 14,8 C 15,0 C 74 % 1000,3 hPa 0,0 l/m 0,00 h 0,00 h 0 W/m 0,4 km/h (0 Bft) 95,51 %
04.06.2020 01:00 16,0 C 14,4 C 14,8 C 81 % 999,9 hPa 0,0 l/m 0,00 h 0,00 h 0 W/m 1,0 km/h (0 Bft) 94,97 %
04.06.2020 02:00 15,6 C 14,2 C 14,5 C 85 % 999,6 hPa 0,0 l/m 0,00 h 0,00 h 0 W/m 1,3 km/h (1 Bft) 98,69 %
04.06.2020 03:00 15,3 C 14,0 C 14,3 C 87 % 999,2 hPa 0,0 l/m 0,00 h 0,00 h 0 W/m 0,1 km/h (0 Bft) 98,58 %
04.06.2020 04:00 15,0 C 13,7 C 13,9 C 89 % 998,4 hPa 0,0 l/m 0,00 h 0,00 h 0 W/m 0,5 km/h (0 Bft) 96,20 %
04.06.2020 05:00 14,6 C 13,3 C 13,9 C 91 % 997,8 hPa 0,0 l/m 0,00 h 0,00 h 5 W/m 0,6 km/h (0 Bft) 96,37 %
04.06.2020 06:00 14,4 C 13,7 C 13,9 C 92 % 997,5 hPa 0,0 l/m 0,00 h 0,00 h 11 W/m 0,6 km/h (0 Bft) 98,93 %
04.06.2020 07:00 14,7 C 14,4 C 14,3 C 92 % 997,1 hPa 0,0 l/m 0,00 h 0,00 h 40 W/m 1,4 km/h (1 Bft) 97,30 %
04.06.2020 08:00 14,9 C 14,3 C 14,2 C 90 % 997,1 hPa 0,0 l/m 0,00 h 0,00 h 34 W/m 2,3 km/h (1 Bft) 96,65 %
04.06.2020 09:00 14,9 C 14,5 C 14,1 C 92 % 997,0 hPa 0,0 l/m 0,00 h 0,00 h 64 W/m 1,1 km/h (0 Bft) 97,67 %
04.06.2020 10:00 14,9 C 14,2 C 14,0 C 91 % 996,9 hPa 0,0 l/m 0,00 h 0,00 h 58 W/m 1,9 km/h (1 Bft) 98,20 %
04.06.2020 11:00 14,9 C 13,9 C 14,0 C 94 % 996,8 hPa 0,2 l/m 0,00 h 0,13 h 109 W/m 1,0 km/h (0 Bft) 97,80 %
04.06.2020 12:00 15,0 C 14,1 C 14,0 C 94 % 996,6 hPa 0,0 l/m 0,00 h 0,00 h 66 W/m 1,4 km/h (1 Bft) 95,91 %
04.06.2020 13:00 15,1 C 15,2 C 14,5 C 90 % 996,6 hPa 0,0 l/m 0,00 h 0,03 h 138 W/m 8,9 km/h (2 Bft) 98,11 %
04.06.2020 14:00 15,4 C 15,3 C 14,5 C 84 % 996,5 hPa 0,0 l/m 0,00 h 0,03 h 133 W/m 11,7 km/h (2 Bft) 97,61 %
04.06.2020 15:00 14,7 C 13,1 C 13,5 C 85 % 996,7 hPa 0,2 l/m 0,00 h 0,97 h 90 W/m 6,2 km/h (2 Bft) 95,79 %
04.06.2020 16:00 14,3 C 12,6 C 12,8 C 93 % 996,7 hPa 1,4 l/m 0,00 h 0,97 h 119 W/m 2,1 km/h (1 Bft) 98,21 %
04.06.2020 17:00 13,9 C 12,4 C 12,7 C 95 % 996,4 hPa 1,6 l/m 0,00 h 0,73 h 56 W/m 2,3 km/h (1 Bft) 97,07 %
04.06.2020 18:00 13,2 C 12,0 C 11,9 C 96 % 996,6 hPa 0,4 l/m 0,00 h 1,00 h 106 W/m 5,8 km/h (2 Bft) 98,25 %
04.06.2020 19:00 12,7 C 11,7 C 11,6 C 97 % 996,9 hPa 0,0 l/m 0,00 h 0,43 h 90 W/m 5,9 km/h (2 Bft) 96,90 %
04.06.2020 20:00 12,0 C 10,6 C 10,7 C 97 % 997,2 hPa 0,2 l/m 0,00 h 0,07 h 19 W/m 2,5 km/h (1 Bft) 95,58 %
04.06.2020 21:00 11,6 C 10,2 C 10,4 C 97 % 997,3 hPa 0,0 l/m 0,00 h 0,10 h 9 W/m 2,0 km/h (1 Bft) 97,87 %
04.06.2020 22:00 10,8 C 9,3 C 9,7 C 97 % 997,9 hPa 0,2 l/m 0,00 h 0,27 h 0 W/m 9,7 km/h (2 Bft) 96,81 %
04.06.2020 23:00 10,1 C 8,9 C 9,3 C 97 % 998,3 hPa 0,0 l/m 0,00 h 0,03 h 0 W/m 2,3 km/h (1 Bft) 97,35 %
05.06.2020 00:00 10,1 C 8,9 C 9,3 C 98 % 998,5 hPa 0,6 l/m 0,00 h 0,50 h 0 W/m 2,2 km/h (1 Bft) 97,08 %
05.06.2020 01:00 10,0 C 8,7 C 9,0 C 98 % 998,5 hPa 0,0 l/m 0,00 h 0,03 h 0 W/m 1,1 km/h (0 Bft) 98,08 %
05.06.2020 02:00 9,5 C 8,0 C 8,3 C 98 % 998,4 hPa 0,0 l/m 0,00 h 0,00 h 0 W/m 1,4 km/h (1 Bft) 98,43 %
05.06.2020 03:00 8,7 C 7,4 C 7,6 C 98 % 998,3 hPa 0,0 l/m 0,00 h 0,00 h 0 W/m 1,5 km/h (1 Bft) 94,45 %
05.06.2020 04:00 8,0 C 6,6 C 6,8 C 98 % 998,0 hPa 0,0 l/m 0,00 h 0,00 h 0 W/m 0,5 km/h (0 Bft) 99,29 %
05.06.2020 05:00 7,5 C 6,2 C 6,5 C 98 % 997,9 hPa 0,0 l/m 0,00 h 0,00 h 9 W/m 0,5 km/h (0 Bft) 98,29 %
05.06.2020 06:00 7,6 C 7,3 C 7,1 C 98 % 997,6 hPa 0,2 l/m 0,00 h 0,00 h 41 W/m 1,7 km/h (1 Bft) 96,65 %
05.06.2020 07:00 8,6 C 8,6 C 8,2 C 99 % 997,5 hPa 0,0 l/m 0,00 h 0,00 h 70 W/m 4,8 km/h (1 Bft) 97,65 %
05.06.2020 08:00 9,8 C 10,6 C 9,9 C 99 % 996,7 hPa 0,0 l/m 0,00 h 0,00 h 151 W/m 12,2 km/h (2 Bft) 96,15 %
05.06.2020 09:00 11,2 C 11,9 C 10,7 C 94 % 996,1 hPa 0,0 l/m 0,00 h 0,00 h 193 W/m 18,7 km/h (3 Bft) 98,72 %
05.06.2020 10:00 12,1 C 12,5 C 11,0 C 89 % 995,2 hPa 0,0 l/m 0,00 h 0,03 h 148 W/m 18,3 km/h (3 Bft) 97,42 %
05.06.2020 11:00 12,9 C 12,8 C 11,9 C 86 % 994,3 hPa 0,0 l/m 0,00 h 0,47 h 245 W/m 26,3 km/h (4 Bft) 94,20 %
05.06.2020 12:00 13,0 C 11,9 C 11,6 C 87 % 993,5 hPa 0,4 l/m 0,00 h 0,57 h 148 W/m 23,1 km/h (4 Bft) 99,85 %
05.06.2020 13:00 12,2 C 10,5 C 10,7 C 91 % 993,1 hPa 0,6 l/m 0,00 h 1,00 h 117 W/m 26,0 km/h (4 Bft) 97,37 %
05.06.2020 14:00 11,0 C 8,7 C 8,9 C 93 % 993,0 hPa 6,2 l/m 0,00 h 1,00 h 51 W/m 9,9 km/h (2 Bft) 94,87 %
05.06.2020 15:00 9,7 C 9,0 C 8,4 C 95 % 992,7 hPa 0,6 l/m 0,00 h 0,20 h 132 W/m 12,0 km/h (2 Bft) 99,65 %
05.06.2020 16:00 11,5 C 12,9 C 10,3 C 97 % 992,7 hPa 1,2 l/m 0,50 h 0,20 h 420 W/m 19,6 km/h (3 Bft) 97,80 %
05.06.2020 17:00 10,7 C 10,8 C 9,4 C 94 % 993,6 hPa 0,2 l/m 0,50 h 0,37 h 370 W/m 14,7 km/h (3 Bft) 95,17 %
05.06.2020 18:00 11,4 C 10,8 C 9,6 C 94 % 994,8 hPa 0,2 l/m 0,33 h 0,17 h 252 W/m 14,9 km/h (3 Bft) 99,56 %
05.06.2020 19:00 11,4 C 10,7 C 9,5 C 91 % 995,7 hPa 0,0 l/m 0,37 h 0,00 h 198 W/m 11,3 km/h (2 Bft) 97,02 %
05.06.2020 20:00 11,1 C 9,9 C 8,9 C 88 % 996,7 hPa 0,0 l/m 0,20 h 0,00 h 54 W/m 6,6 km/h (2 Bft) 96,51 %
05.06.2020 21:00 10,7 C 9,7 C 8,6 C 85 % 997,5 hPa 0,0 l/m 0,10 h 0,00 h 15 W/m 8,5 km/h (2 Bft) 98,93 %
05.06.2020 22:00 9,9 C 8,8 C 8,1 C 89 % 998,0 hPa 0,0 l/m 0,00 h 0,00 h 0 W/m 4,8 km/h (1 Bft) 96,44 %
05.06.2020 23:00 9,6 C 8,9 C 8,4 C 90 % 998,4 hPa 0,0 l/m 0,00 h 0,17 h 0 W/m 20,7 km/h (4 Bft) 97,04 %
06.06.2020 00:00 8,9 C 8,0 C 7,8 C 84 % 998,7 hPa 0,0 l/m 0,00 h 0,00 h 0 W/m 15,1 km/h (3 Bft) 95,96 %
06.06.2020 01:00 8,6 C 7,8 C 7,4 C 87 % 999,0 hPa 0,0 l/m 0,00 h 0,00 h 0 W/m 18,0 km/h (3 Bft) 96,48 %
06.06.2020 02:00 8,8 C 8,2 C 7,8 C 89 % 998,9 hPa 0,0 l/m 0,00 h 0,00 h 0 W/m 11,7 km/h (2 Bft) 98,86 %
06.06.2020 03:00 9,0 C 8,2 C 7,8 C 88 % 998,7 hPa 0,0 l/m 0,00 h 0,00 h 0 W/m 12,4 km/h (3 Bft) 95,52 %
06.06.2020 04:00 8,8 C 7,8 C 7,3 C 89 % 998,6 hPa 0,0 l/m 0,00 h 0,00 h 0 W/m 10,6 km/h (2 Bft) 97,38 %
06.06.2020 05:00 8,6 C 7,8 C 7,2 C 91 % 998,7 hPa 0,0 l/m 0,00 h 0,00 h 7 W/m 5,1 km/h (1 Bft) 99,72 %
06.06.2020 06:00 8,4 C 7,8 C 7,3 C 91 % 999,1 hPa 0,0 l/m 0,00 h 0,00 h 24 W/m 5,3 km/h (1 Bft) 95,25 %
06.06.2020 07:00 9,2 C 9,8 C 8,8 C 93 % 999,3 hPa 0,0 l/m 0,00 h 0,00 h 78 W/m 15,6 km/h (3 Bft) 97,50 %
06.06.2020 08:00 10,9 C 11,4 C 10,3 C 88 % 999,5 hPa 0,0 l/m 0,00 h 0,07 h 126 W/m 18,4 km/h (3 Bft) 99,50 %
06.06.2020 09:00 10,7 C 9,0 C 8,7 C 90 % 999,9 hPa 2,0 l/m 0,00 h 0,53 h 94 W/m 11,8 km/h (2 Bft) 95,95 %
06.06.2020 10:00 11,2 C 13,3 C 12,1 C 93 % 1000,0 hPa 0,0 l/m 0,43 h 0,00 h 456 W/m 18,5 km/h (3 Bft) 97,22 %
06.06.2020 11:00 14,0 C 17,6 C 14,8 C 81 % 1000,3 hPa 0,0 l/m 0,63 h 0,00 h 728 W/m 19,2 km/h (3 Bft) 98,35 %
06.06.2020 12:00 16,0 C 19,8 C 16,0 C 68 % 1000,5 hPa 0,0 l/m 0,93 h 0,00 h 952 W/m 22,3 km/h (4 Bft) 98,24 %
06.06.2020 13:00 17,1 C 19,8 C 17,5 C 59 % 1000,6 hPa 0,0 l/m 0,67 h 0,00 h 745 W/m 22,4 km/h (4 Bft) 96,98 %
06.06.2020 14:00 17,7 C 20,0 C 17,4 C 54 % 1000,9 hPa 0,0 l/m 0,60 h 0,00 h 688 W/m 23,4 km/h (4 Bft) 96,01 %
06.06.2020 15:00 17,9 C 19,0 C 16,6 C 53 % 1001,1 hPa 0,0 l/m 0,57 h 0,17 h 595 W/m 26,4 km/h (4 Bft) 98,51 %
06.06.2020 16:00 17,5 C 20,2 C 16,3 C 55 % 1001,3 hPa 0,0 l/m 0,77 h 0,00 h 652 W/m 23,8 km/h (4 Bft) 97,20 %
06.06.2020 17:00 18,1 C 19,1 C 16,6 C 51 % 1001,3 hPa 0,0 l/m 0,57 h 0,00 h 445 W/m 26,1 km/h (4 Bft) 99,15 %
06.06.2020 18:00 17,5 C 17,4 C 15,9 C 50 % 1001,3 hPa 0,0 l/m 0,57 h 0,00 h 291 W/m 26,1 km/h (4 Bft) 95,17 %
06.06.2020 19:00 16,5 C 15,8 C 15,1 C 54 % 1001,6 hPa 0,0 l/m 0,10 h 0,00 h 88 W/m 20,7 km/h (4 Bft) 98,15 %
06.06.2020 20:00 15,6 C 14,8 C 14,1 C 58 % 1001,9 hPa 0,0 l/m 0,13 h 0,00 h 58 W/m 10,1 km/h (2 Bft) 99,83 %
06.06.2020 21:00 14,9 C 13,6 C 13,3 C 59 % 1002,2 hPa 0,0 l/m 0,13 h 0,00 h 18 W/m 7,9 km/h (2 Bft) 95,16 %
06.06.2020 22:00 13,6 C 12,3 C 12,2 C 60 % 1002,8 hPa 0,0 l/m 0,00 h 0,00 h 0 W/m 5,9 km/h (2 Bft) 97,22 %
06.06.2020 23:00 13,3 C 12,3 C 12,1 C 61 % 1003,0 hPa 0,0 l/m 0,00 h 0,00 h 0 W/m 4,4 km/h (1 Bft) 98,48 %
07.06.2020 00:00 12,9 C 11,7 C 11,4 C 64 % 1002,9 hPa 0,0 l/m 0,00 h 0,00 h 0 W/m 4,8 km/h (1 Bft) 96,67 %
07.06.2020 01:00 12,1 C 10,7 C 10,6 C 68 % 1002,9 hPa 0,0 l/m 0,00 h 0,00 h 0 W/m 5,5 km/h (1 Bft) 97,87 %
07.06.2020 02:00 11,5 C 10,6 C 10,5 C 71 % 1002,8 hPa 0,0 l/m 0,00 h 0,00 h 0 W/m 8,9 km/h (2 Bft) 96,22 %
07.06.2020 03:00 11,3 C 10,6 C 10,1 C 72 % 1002,8 hPa 0,0 l/m 0,00 h 0,00 h 0 W/m 12,4 km/h (3 Bft) 97,37 %
07.06.2020 04:00 11,1 C 10,4 C 10,0 C 72 % 1003,0 hPa 0,0 l/m 0,00 h 0,00 h 0 W/m 12,3 km/h (3 Bft) 98,45 %
07.06.2020 05:00 11,1 C 10,2 C 9,9 C 74 % 1003,4 hPa 0,0 l/m 0,00 h 0,13 h 7 W/m 14,8 km/h (3 Bft) 95,71 %
07.06.2020 06:00 11,2 C 10,6 C 10,0 C 78 % 1003,9 hPa 0,0 l/m 0,00 h 0,00 h 28 W/m 15,9 km/h (3 Bft) 95,80 %
07.06.2020 07:00 11,4 C 11,1 C 10,5 C 81 % 1004,5 hPa 0,0 l/m 0,00 h 0,03 h 71 W/m 14,4 km/h (3 Bft) 98,22 %
07.06.2020 08:00 12,6 C 14,2 C 12,4 C 80 % 1005,1 hPa 0,0 l/m 0,00 h 0,00 h 127 W/m 18,2 km/h (3 Bft) 97,51 %
07.06.2020 09:00 14,2 C 16,3 C 15,6 C 77 % 1005,8 hPa 0,0 l/m 0,43 h 0,00 h 343 W/m 13,7 km/h (3 Bft) 96,29 %
07.06.2020 10:00 16,0 C 18,0 C 18,2 C 70 % 1006,3 hPa 0,0 l/m 0,50 h 0,00 h 473 W/m 14,6 km/h (3 Bft) 99,29 %
07.06.2020 11:00 15,5 C 16,1 C 15,1 C 68 % 1006,9 hPa 0,0 l/m 0,07 h 0,00 h 236 W/m 12,6 km/h (3 Bft) 97,51 %
07.06.2020 12:00 15,9 C 18,1 C 16,2 C 68 % 1007,7 hPa 0,0 l/m 0,27 h 0,00 h 494 W/m 16,0 km/h (3 Bft) 95,77 %
07.06.2020 13:00 17,0 C 18,8 C 17,2 C 65 % 1008,1 hPa 0,0 l/m 0,17 h 0,00 h 354 W/m 13,2 km/h (3 Bft) 97,99 %
07.06.2020 14:00 17,8 C 20,2 C 17,3 C 62 % 1008,6 hPa 0,0 l/m 0,30 h 0,00 h 494 W/m 11,1 km/h (2 Bft) 98,40 %
07.06.2020 15:00 20,1 C 23,6 C 18,6 C 56 % 1008,8 hPa 0,0 l/m 0,67 h 0,00 h 748 W/m 12,1 km/h (2 Bft) 97,80 %
07.06.2020 16:00 18,7 C 18,0 C 17,2 C 58 % 1009,1 hPa 0,0 l/m 0,03 h 0,00 h 156 W/m 8,7 km/h (2 Bft) 96,02 %
07.06.2020 17:00 17,9 C 18,1 C 16,7 C 62 % 1009,5 hPa 0,0 l/m 0,00 h 0,00 h 175 W/m 6,9 km/h (2 Bft) 98,72 %
07.06.2020 18:00 17,8 C 17,7 C 16,7 C 60 % 1009,8 hPa 0,0 l/m 0,00 h 0,00 h 154 W/m 9,8 km/h (2 Bft) 96,85 %
07.06.2020 19:00 17,6 C 16,9 C 16,3 C 62 % 1010,1 hPa 0,0 l/m 0,00 h 0,00 h 83 W/m 2,9 km/h (1 Bft) 97,57 %
07.06.2020 20:00 17,2 C 16,0 C 15,3 C 64 % 1010,5 hPa 0,0 l/m 0,00 h 0,00 h 39 W/m 0,9 km/h (0 Bft) 98,53 %
07.06.2020 21:00 16,2 C 14,4 C 14,0 C 70 % 1011,1 hPa 0,0 l/m 0,00 h 0,00 h 12 W/m 3,6 km/h (1 Bft) 96,58 %
07.06.2020 22:00 14,6 C 12,1 C 12,3 C 79 % 1011,9 hPa 0,0 l/m 0,00 h 0,00 h 0 W/m 1,0 km/h (0 Bft) 94,87 %
07.06.2020 23:00 13,1 C 10,8 C 10,8 C 83 % 1012,2 hPa 0,0 l/m 0,00 h 0,00 h 0 W/m 0,1 km/h (0 Bft) 99,00 %
Min-Datum _ 05.06.20 05.06.20 05.06.20 02.06.20 05.06.20 - - - - 01.06.20 06.06.20
_ Min-Zeit 05:50 04:34 05:32 17:08 16:34 - - - - 00:00 00:42
Minimum _ 7,3 C 6,1 C 6,1 C 33 % 992,2 hPa - - - - 0,0 km/h (0 Bft) 37,50 %
Max-Datum _ 02.06.20 02.06.20 01.06.20 05.06.20 01.06.20 05.06.20 01.06.20 04.06.20 06.06.20 06.06.20 01.06.20
_ Max-Zeit 18:08 13:48 13:44 07:20 08:28 14:26 12:08 18:08 14:26 15:14 00:00
Maximum _ 30,5 C 35,6 C 35,6 C 99 % 1023,0 hPa 6,2 l/m 0,07 h 0,07 h 1159 W/m 61,2 km/h
S-SO (7 Bft)
100,00 %
Durchschnitt _ 16,7 C 16,8 C 15,6 C 72 % 1006,3 hPa #16,4 l/m #40:20 h #10:28 h 303 W/m 7,2 km/h (2 Bft) 97,39 %
© 2020 W. Hausmann